Island Venture — WDG3765 — position and weather

sailwx.info

Track history (hours):
 
Tides and Currents Weather Stations Pressure Air Temp Water Temp Dewpoint Dewpoint Depression Visibility Wind Speed Wind Dir Waves Ship Positions

Island Venture

Owner: Island Tug & Barge Co, Seattle, WA. More information available from US FCC via Universal Licensing System and Coast Guard Vessel Documentation Center.

Last reported at 2014-Oct-25 03:33 UTC. Time now 2014-Oct-25 03:36 UTC.
Position N 48°22' W 122°59'.

Type: Tug. MMSI: 367529420.

Date/timePositionNaut miles runAvg speedWind from/ knotsBaromVisibWave heightAir tempDewpointWater temp
2014-Oct-25 03:33N 48°22' W 122°59'6 5.8
2014-Oct-25 02:32N 48°17' W 122°55'7 6.1
2014-Oct-25 01:26N 48°12' W 122°48'5 5.8
2014-Oct-25 00:36N 48°09' W 122°42'1 5.4
2014-Oct-25 00:30N 48°09' W 122°42'6 5.4
2014-Oct-24 23:29N 48°04' W 122°38'5 5.2
2014-Oct-24 22:33N 47°59' W 122°35'2 5.3
2014-Oct-24 22:11N 47°58' W 122°33'4 5.8
2014-Oct-24 21:33N 47°55' W 122°29'7 6.6
2014-Oct-24 20:33N 47°49' W 122°26'4 6.8
2014-Oct-24 20:01N 47°45' W 122°25'3 7.1
2014-Oct-24 19:33N 47°42' W 122°26'0 6.8
2014-Oct-24 19:31N 47°42' W 122°26'6 6.4
2014-Oct-24 18:33N 47°36' W 122°23'1 3.5
2014-Oct-24 18:14N 47°35' W 122°22'1 1.5
2014-Oct-24 17:33N 47°34' W 122°21'0 0.6
2014-Oct-24 17:29N 47°34' W 122°21'0 0.0
2014-Oct-24 16:33N 47°34' W 122°21'0 0.1
2014-Oct-24 16:28N 47°34' W 122°21'0 0.0
2014-Oct-24 15:33N 47°34' W 122°21'0 0.1
2014-Oct-24 15:29N 47°34' W 122°21'1 0.6
2014-Oct-24 14:33N 47°34' W 122°21'0 0.1
2014-Oct-24 14:28N 47°34' W 122°21'0 0.5
2014-Oct-24 13:33N 47°34' W 122°21'0 0.0
2014-Oct-24 13:33N 47°34' W 122°21'0 0.0
2014-Oct-24 12:33N 47°34' W 122°21'0 0.0
2014-Oct-24 12:33N 47°34' W 122°21'0 0.0
2014-Oct-24 11:33N 47°34' W 122°21'0 0.0
2014-Oct-24 11:33N 47°34' W 122°21'0 0.0
2014-Oct-24 10:33N 47°34' W 122°21'0 0.0
2014-Oct-24 10:33N 47°34' W 122°21'1 0.7
2014-Oct-24 09:33N 47°34' W 122°21'0 0.0
2014-Oct-24 09:33N 47°34' W 122°21'1 1.4
2014-Oct-24 08:33N 47°32' W 122°20'3 2.8
2014-Oct-24 07:33N 47°35' W 122°22'2 2.2
2014-Oct-24 06:27N 47°35' W 122°25'1 7.6
2014-Oct-24 06:22N 47°35' W 122°26'3 8.1
2014-Oct-24 06:02N 47°32' W 122°27'5 9.4
2014-Oct-24 05:33N 47°28' W 122°31'9 8.5
2014-Oct-24 04:33N 47°20' W 122°32'5 4.6
2014-Oct-24 03:33N 47°18' W 122°26'0 0.0
2014-Oct-24 02:33N 47°18' W 122°26'0 0.0
2014-Oct-24 01:33N 47°18' W 122°26'2 1.7
2014-Oct-24 00:30N 47°16' W 122°24'4 4.0
2014-Oct-23 23:36N 47°18' W 122°28'0 8.5
2014-Oct-23 23:33N 47°18' W 122°29'3 3.3
2014-Oct-23 22:33N 47°16' W 122°33'7 6.1
2014-Oct-23 21:21N 47°10' W 122°38'1 1.3
2014-Oct-23 20:23N 47°09' W 122°38'0 0.0
2014-Oct-23 19:33N 47°09' W 122°38'1 1.0
2014-Oct-23 18:33N 47°10' W 122°39'8 7.8
2014-Oct-23 17:33N 47°16' W 122°33'3 4.4
2014-Oct-23 16:50N 47°19' W 122°30'310.0
2014-Oct-23 16:33N 47°17' W 122°26'2 1.7
2014-Oct-23 15:28N 47°17' W 122°24'0 0.0
2014-Oct-23 14:31N 47°17' W 122°24'1 0.7
2014-Oct-23 13:20N 47°16' W 122°23'1 1.0
2014-Oct-23 12:33N 47°17' W 122°24'1 0.6
2014-Oct-23 11:32N 47°16' W 122°23'2 2.2
2014-Oct-23 10:33N 47°17' W 122°26'3 3.3
2014-Oct-23 09:33N 47°20' W 122°24'2 5.2
2014-Oct-23 09:14N 47°21' W 122°22'3 4.9
2014-Oct-23 08:33N 47°25' W 122°23'3 4.7
2014-Oct-23 07:49N 47°28' W 122°25'1 4.8
2014-Oct-23 07:33N 47°29' W 122°26'2 4.7
2014-Oct-23 07:05N 47°31' W 122°26'3 4.9
2014-Oct-23 06:33N 47°34' W 122°27'0 4.7
2014-Oct-23 06:29N 47°34' W 122°27'2 4.2
2014-Oct-23 05:55N 47°37' W 122°28'1 4.0
2014-Oct-23 05:33N 47°38' W 122°28'3 3.5
2014-Oct-23 04:33N 47°41' W 122°28'0 3.5
2014-Oct-23 04:29N 47°42' W 122°28'3 3.4
2014-Oct-23 03:33N 47°45' W 122°27'0 3.1
2014-Oct-23 03:29N 47°45' W 122°27'3 3.6
2014-Oct-23 02:33N 47°48' W 122°28'0 3.9
2014-Oct-23 02:29N 47°49' W 122°28'4 3.9
2014-Oct-23 01:33N 47°52' W 122°29'0 3.8
2014-Oct-23 01:29N 47°52' W 122°30'4 3.8
2014-Oct-23 00:33N 47°55' W 122°32'4 4.1
2014-Oct-22 23:33N 47°56' W 122°38'5 4.7
2014-Oct-22 22:33N 47°52' W 122°37'4 4.1
2014-Oct-22 21:33N 47°48' W 122°41'3 2.8
2014-Oct-22 20:33N 47°46' W 122°43'0 0.2
2014-Oct-22 19:33N 47°46' W 122°43'0 0.0
2014-Oct-22 18:33N 47°46' W 122°43'0 4.9
2014-Oct-22 18:33N 47°46' W 122°43'7 7.4
2014-Oct-22 17:33N 47°52' W 122°37'5 4.7
2014-Oct-22 16:31N 47°57' W 122°37'3 8.0
2014-Oct-22 16:12N 47°57' W 122°33'5 8.0
2014-Oct-22 15:33N 47°53' W 122°28'7 8.6
2014-Oct-22 14:48N 47°47' W 122°26'2 8.7
2014-Oct-22 14:33N 47°45' W 122°26'0 8.6
2014-Oct-22 14:33N 47°45' W 122°26'8 7.9
2014-Oct-22 13:33N 47°37' W 122°24'0 6.9
2014-Oct-22 13:32N 47°37' W 122°23'3 3.0
2014-Oct-22 12:33N 47°34' W 122°21'0 0.0
2014-Oct-22 12:32N 47°34' W 122°21'0 0.0
2014-Oct-22 11:33N 47°34' W 122°21'0 0.0
2014-Oct-22 11:32N 47°34' W 122°21'0 0.0
2014-Oct-22 10:33N 47°34' W 122°21'0 0.0
2014-Oct-22 10:32N 47°34' W 122°21'0 0.0
2014-Oct-22 09:33N 47°34' W 122°21'0 0.0
2014-Oct-22 09:32N 47°34' W 122°21'0 0.0
2014-Oct-22 08:33N 47°34' W 122°21'0 0.0
2014-Oct-22 08:32N 47°34' W 122°21'0 0.0
2014-Oct-22 07:33N 47°34' W 122°21'0 0.3
2014-Oct-22 07:32N 47°34' W 122°21'0 0.0
2014-Oct-22 06:33N 47°34' W 122°21'0 0.0
2014-Oct-22 06:31N 47°34' W 122°21'0 0.0
2014-Oct-22 05:57N 47°34' W 122°21'0 0.0
2014-Oct-22 05:33N 47°34' W 122°21'0 0.0
2014-Oct-22 04:32N 47°34' W 122°21'0 0.0
2014-Oct-22 04:31N 47°34' W 122°21'0 0.0
2014-Oct-22 03:33N 47°34' W 122°21'0 0.0
2014-Oct-22 03:31N 47°34' W 122°21'0 0.0
2014-Oct-22 02:26N 47°34' W 122°21'0 0.0
2014-Oct-22 01:29N 47°34' W 122°21'0 0.0
2014-Oct-22 01:29N 47°34' W 122°21'0 0.0
2014-Oct-22 00:19N 47°34' W 122°21'1 2.3
2014-Oct-21 23:52N 47°35' W 122°22'1 4.5
2014-Oct-21 23:33N 47°34' W 122°21'0 5.3
2014-Oct-21 23:33N 47°34' W 122°21'0 0.5
2014-Oct-21 22:33N 47°34' W 122°21'0 0.0
2014-Oct-21 22:22N 47°34' W 122°21'0 0.0
2014-Oct-21 21:33N 47°34' W 122°21'0 0.0
2014-Oct-21 21:31N 47°34' W 122°21'0 0.0
2014-Oct-21 20:33N 47°34' W 122°21'0 0.0
2014-Oct-21 20:31N 47°34' W 122°21'0 0.0
2014-Oct-21 19:33N 47°34' W 122°21'0 0.0
2014-Oct-21 19:31N 47°34' W 122°21'0 0.4
2014-Oct-21 18:33N 47°34' W 122°21'0 2.1
2014-Oct-21 18:31N 47°34' W 122°21'3 2.7
2014-Oct-21 17:33N 47°36' W 122°24'0 6.2
2014-Oct-21 17:31N 47°36' W 122°24'7 7.1
2014-Oct-21 16:33N 47°30' W 122°29'8 7.6
2014-Oct-21 15:33N 47°23' W 122°32'8 8.4
2014-Oct-21 14:33N 47°14' W 122°35'7 7.0
2014-Oct-21 13:33N 47°08' W 122°39'0 0.3
2014-Oct-21 12:40N 47°08' W 122°39'0 0.0
2014-Oct-21 12:33N 47°08' W 122°39'0 0.0
2014-Oct-21 12:00N 47°08' W 122°39'0 0.0
2014-Oct-21 11:32N 47°08' W 122°39'0 0.0
2014-Oct-21 11:25N 47°08' W 122°39'0 0.0
2014-Oct-21 10:33N 47°08' W 122°39'0 0.1
2014-Oct-21 10:30N 47°08' W 122°39'0 0.0
2014-Oct-21 09:33N 47°08' W 122°39'0 0.0
2014-Oct-21 08:33N 47°08' W 122°39'0 0.0
2014-Oct-21 08:10N 47°08' W 122°39'0 0.0
2014-Oct-21 07:33N 47°08' W 122°39'2 2.3
2014-Oct-21 06:32N 47°10' W 122°38'7 7.0
2014-Oct-21 05:33N 47°16' W 122°33'6 5.7
2014-Oct-21 04:33N 47°22' W 122°32'7 6.5
2014-Oct-21 03:33N 47°28' W 122°31'7 6.8
2014-Oct-21 02:33N 47°35' W 122°27'1 7.3
2014-Oct-21 02:29N 47°35' W 122°26'3 3.6
2014-Oct-21 01:33N 47°34' W 122°21'0 5.5
2014-Oct-21 01:30N 47°34' W 122°21'0 0.3
2014-Oct-21 00:33N 47°34' W 122°21'0 0.7
2014-Oct-21 00:29N 47°34' W 122°21'3 3.3
2014-Oct-20 23:33N 47°36' W 122°25'0 6.8
2014-Oct-20 23:29N 47°35' W 122°25'7 7.2
2014-Oct-20 22:33N 47°29' W 122°30'7 6.9
2014-Oct-20 21:33N 47°23' W 122°32'6 5.8
2014-Oct-20 20:33N 47°17' W 122°32'4 3.7
2014-Oct-20 19:33N 47°14' W 122°35'6 6.3
2014-Oct-20 18:33N 47°08' W 122°39'0 0.2
2014-Oct-20 17:31N 47°08' W 122°39'0 0.0
2014-Oct-20 16:33N 47°08' W 122°39'0 0.0
2014-Oct-20 15:33N 47°08' W 122°39'0 0.0
2014-Oct-20 14:34N 47°08' W 122°39'0 0.0
2014-Oct-20 13:32N 47°08' W 122°39'0 0.0
2014-Oct-20 08:33N 47°08' W 122°39'5 4.6
2014-Oct-20 07:33N 47°12' W 122°36'6 6.1
2014-Oct-20 06:34N 47°18' W 122°33'5 5.2
2014-Oct-20 05:34N 47°23' W 122°32'6 5.6
2014-Oct-20 04:34N 47°29' W 122°31'0 4.2
2014-Oct-20 04:32N 47°29' W 122°30'5 5.4
2014-Oct-20 03:34N 47°33' W 122°27'1 5.5
2014-Oct-20 03:28N 47°34' W 122°26'3 3.3
2014-Oct-20 02:33N 47°35' W 122°22'0 0.0
2014-Oct-20 02:33N 47°35' W 122°22'1 1.0
2014-Oct-20 01:33N 47°34' W 122°21'0 0.0
2014-Oct-20 01:33N 47°34' W 122°21'0 0.0
2014-Oct-18 17:49N 47°34' W 122°21'1 2.5
2014-Oct-18 17:33N 47°34' W 122°21'1 3.9
2014-Oct-18 17:24N 47°34' W 122°21'2 2.6
2014-Oct-18 16:34N 47°36' W 122°23'0 2.7
2014-Oct-18 16:28N 47°37' W 122°23'5 5.3
2014-Oct-18 15:34N 47°39' W 122°28'0 5.0
2014-Oct-18 15:29N 47°40' W 122°28'5 5.0
2014-Oct-18 14:33N 47°44' W 122°27'0 4.7
2014-Oct-18 14:29N 47°45' W 122°27'5 5.4
2014-Oct-18 13:34N 47°50' W 122°28'0 3.7
2014-Oct-18 13:33N 47°50' W 122°28'5 4.9
2014-Oct-18 12:34N 47°54' W 122°30'0 3.2
2014-Oct-18 12:33N 47°54' W 122°30'4 4.1
2014-Oct-18 11:34N 47°57' W 122°35'4 4.1
2014-Oct-18 10:34N 48°01' W 122°38'5 4.5
2014-Oct-18 09:32N 48°05' W 122°40'10 5.2
2014-Oct-18 07:33N 48°12' W 122°52'6 5.6
2014-Oct-18 06:34N 48°16' W 122°56'5 5.2
2014-Oct-18 05:33N 48°21' W 123°00'5 5.0
2014-Oct-18 04:34N 48°25' W 123°04'5 5.7
2014-Oct-18 03:36N 48°29' W 123°09'0 5.7
2014-Oct-18 03:33N 48°30' W 123°10'2 6.0
2014-Oct-18 03:16N 48°31' W 123°11'4 5.9
2014-Oct-18 02:34N 48°35' W 123°13'2 5.5
2014-Oct-18 02:16N 48°37' W 123°14'4 6.1
2014-Oct-18 01:34N 48°41' W 123°16'6 6.2
2014-Oct-18 00:33N 48°45' W 123°09'3 3.3
2014-Oct-17 23:32N 48°46' W 123°13'0 0.2
2014-Oct-17 22:33N 48°46' W 123°13'0 0.2
2014-Oct-17 21:33N 48°46' W 123°13'1 0.6
2014-Oct-17 20:33N 48°46' W 123°12'1 0.8
2014-Oct-17 19:33N 48°46' W 123°13'0 0.3
2014-Oct-17 18:33N 48°46' W 123°13'2 2.1
2014-Oct-17 17:35N 48°45' W 123°10'0 5.8
2014-Oct-17 17:33N 48°45' W 123°10'0 1.3
2014-Oct-17 17:30N 48°45' W 123°10'4 3.7
2014-Oct-17 16:33N 48°42' W 123°13'2 6.1
2014-Oct-17 16:15N 48°41' W 123°15'5 6.9
2014-Oct-17 15:34N 48°37' W 123°13'6 6.2
2014-Oct-17 14:34N 48°31' W 123°11'7 6.6
2014-Oct-17 13:34N 48°26' W 123°04'8 7.5
2014-Oct-17 12:32N 48°19' W 122°57'7 7.4
2014-Oct-17 11:33N 48°14' W 122°51'10 8.9
2014-Oct-17 10:27N 48°08' W 122°40'8 8.4
2014-Oct-17 09:32N 48°00' W 122°36'5 7.8
2014-Oct-17 08:54N 47°57' W 122°31'2 7.2
2014-Oct-17 08:33N 47°55' W 122°28'8 7.6
2014-Oct-17 07:33N 47°47' W 122°26'4 7.4
2014-Oct-17 07:02N 47°43' W 122°26'3 6.9
2014-Oct-17 06:33N 47°40' W 122°27'0 6.2
2014-Oct-17 06:32N 47°40' W 122°27'6 5.7
2014-Oct-17 05:32N 47°35' W 122°22'1 1.3
2014-Oct-17 04:33N 47°34' W 122°21'0 0.0
2014-Oct-17 04:29N 47°34' W 122°21'1 0.7
2014-Oct-17 03:33N 47°34' W 122°21'0 0.0
2014-Oct-17 03:29N 47°34' W 122°21'3 3.3
2014-Oct-17 02:33N 47°35' W 122°25'0 6.9
2014-Oct-17 02:29N 47°35' W 122°25'6 6.8
2014-Oct-17 01:33N 47°30' W 122°30'5 7.0
2014-Oct-17 00:54N 47°25' W 122°31'2 6.5
2014-Oct-17 00:33N 47°23' W 122°32'7 6.8
2014-Oct-16 23:33N 47°16' W 122°33'12 2.3
2014-Oct-16 18:14N 47°11' W 122°50'3 2.8
2014-Oct-16 17:06N 47°10' W 122°46'4 7.3
2014-Oct-16 16:33N 47°11' W 122°41'8 8.4
2014-Oct-16 15:33N 47°18' W 122°33'8 8.2
2014-Oct-16 14:33N 47°26' W 122°31'6 7.6
2014-Oct-16 13:42N 47°32' W 122°28'1 8.4
2014-Oct-16 13:33N 47°33' W 122°27'3 8.0
2014-Oct-16 13:13N 47°35' W 122°25'3 4.7
2014-Oct-16 12:33N 47°34' W 122°21'0 3.2
2014-Oct-16 12:33N 47°34' W 122°21'1 0.5
2014-Oct-16 11:33N 47°34' W 122°21'1 5.9
2014-Oct-16 11:28N 47°35' W 122°22'1 0.8
2014-Oct-16 10:33N 47°35' W 122°22'0 1.8
2014-Oct-16 10:32N 47°35' W 122°22'6 5.9
2014-Oct-16 09:33N 47°40' W 122°27'0 6.4
2014-Oct-16 09:32N 47°41' W 122°27'6 6.5
2014-Oct-16 08:33N 47°47' W 122°26'0 6.0
2014-Oct-16 08:32N 47°47' W 122°26'7 7.0
2014-Oct-16 07:33N 47°53' W 122°22'0 7.0
2014-Oct-16 07:32N 47°54' W 122°22'7 6.8
2014-Oct-16 06:33N 47°58' W 122°15'4 3.7
2014-Oct-16 05:33N 48°01' W 122°11'0 0.1
2014-Oct-16 04:33N 48°01' W 122°11'0 0.0
2014-Oct-16 03:33N 48°01' W 122°11'0 0.0
2014-Oct-16 02:36N 48°01' W 122°11'0 0.0
2014-Oct-16 02:25N 48°01' W 122°11'0 0.0
2014-Oct-16 01:33N 48°01' W 122°11'0 0.0
2014-Oct-16 00:33N 48°01' W 122°11'0 0.0
2014-Oct-15 23:04N 48°01' W 122°11'0 0.0
2014-Oct-15 22:32N 48°01' W 122°11'0 0.0
2014-Oct-15 21:33N 48°01' W 122°11'0 0.0
2014-Oct-15 20:33N 48°01' W 122°11'0 0.0
2014-Oct-15 19:33N 48°01' W 122°11'2 1.7
2014-Oct-15 18:33N 48°01' W 122°14'7 6.6
2014-Oct-15 17:33N 47°56' W 122°20'710.9
2014-Oct-15 16:56N 47°50' W 122°24'411.0
2014-Oct-15 16:33N 47°46' W 122°25'111.0
2014-Oct-15 16:26N 47°44' W 122°26'910.1
2014-Oct-15 15:33N 47°36' W 122°22'110.2
2014-Oct-15 15:30N 47°35' W 122°22'1 1.5
2014-Oct-15 14:33N 47°34' W 122°21'0 0.1
2014-Oct-15 14:30N 47°34' W 122°21'1 0.9
2014-Oct-15 13:33N 47°35' W 122°22'0 3.7
2014-Oct-15 13:30N 47°35' W 122°22'3 3.2
2014-Oct-15 12:33N 47°35' W 122°26'0 4.3
2014-Oct-15 12:30N 47°35' W 122°26'5 4.8
2014-Oct-15 11:33N 47°31' W 122°29'0 5.3
2014-Oct-15 11:29N 47°30' W 122°29'5 5.5
2014-Oct-15 10:33N 47°26' W 122°32'2 4.8
2014-Oct-15 10:03N 47°23' W 122°32'3 5.5
2014-Oct-15 09:33N 47°21' W 122°33'7 6.8
2014-Oct-15 08:33N 47°14' W 122°35'13 5.4
2014-Oct-15 06:09N 47°09' W 122°53'  
Track history (hours):
 
Tides and Currents Weather Stations Pressure Air Temp Water Temp Dewpoint Dewpoint Depression Visibility Wind Speed Wind Dir Waves Ship Positions

Island Venture

Owner: Island Tug & Barge Co, Seattle, WA. More information available from US FCC via Universal Licensing System and Coast Guard Vessel Documentation Center.

Last reported at 2014-Oct-25 03:33 UTC. Time now 2014-Oct-25 03:36 UTC.
Position N 48°22' W 122°59'.

Type: Tug. MMSI: 367529420.

Date/timePositionNaut miles runAvg speedWind from/ knotsBaromVisibWave heightAir tempDewpointWater temp
2014-Oct-25 03:33N 48°22' W 122°59'6 5.8
2014-Oct-25 02:32N 48°17' W 122°55'7 6.1
2014-Oct-25 01:26N 48°12' W 122°48'5 5.8
2014-Oct-25 00:36N 48°09' W 122°42'1 5.4
2014-Oct-25 00:30N 48°09' W 122°42'6 5.4
2014-Oct-24 23:29N 48°04' W 122°38'5 5.2
2014-Oct-24 22:33N 47°59' W 122°35'2 5.3
2014-Oct-24 22:11N 47°58' W 122°33'4 5.8
2014-Oct-24 21:33N 47°55' W 122°29'7 6.6
2014-Oct-24 20:33N 47°49' W 122°26'4 6.8
2014-Oct-24 20:01N 47°45' W 122°25'3 7.1
2014-Oct-24 19:33N 47°42' W 122°26'0 6.8
2014-Oct-24 19:31N 47°42' W 122°26'6 6.4
2014-Oct-24 18:33N 47°36' W 122°23'1 3.5
2014-Oct-24 18:14N 47°35' W 122°22'1 1.5
2014-Oct-24 17:33N 47°34' W 122°21'0 0.6
2014-Oct-24 17:29N 47°34' W 122°21'0 0.0
2014-Oct-24 16:33N 47°34' W 122°21'0 0.1
2014-Oct-24 16:28N 47°34' W 122°21'0 0.0
2014-Oct-24 15:33N 47°34' W 122°21'0 0.1
2014-Oct-24 15:29N 47°34' W 122°21'1 0.6
2014-Oct-24 14:33N 47°34' W 122°21'0 0.1
2014-Oct-24 14:28N 47°34' W 122°21'0 0.5
2014-Oct-24 13:33N 47°34' W 122°21'0 0.0
2014-Oct-24 13:33N 47°34' W 122°21'0 0.0
2014-Oct-24 12:33N 47°34' W 122°21'0 0.0
2014-Oct-24 12:33N 47°34' W 122°21'0 0.0
2014-Oct-24 11:33N 47°34' W 122°21'0 0.0
2014-Oct-24 11:33N 47°34' W 122°21'0 0.0
2014-Oct-24 10:33N 47°34' W 122°21'0 0.0
2014-Oct-24 10:33N 47°34' W 122°21'1 0.7
2014-Oct-24 09:33N 47°34' W 122°21'0 0.0
2014-Oct-24 09:33N 47°34' W 122°21'1 1.4
2014-Oct-24 08:33N 47°32' W 122°20'3 2.8
2014-Oct-24 07:33N 47°35' W 122°22'2 2.2
2014-Oct-24 06:27N 47°35' W 122°25'1 7.6
2014-Oct-24 06:22N 47°35' W 122°26'3 8.1
2014-Oct-24 06:02N 47°32' W 122°27'5 9.4
2014-Oct-24 05:33N 47°28' W 122°31'9 8.5
2014-Oct-24 04:33N 47°20' W 122°32'5 4.6
2014-Oct-24 03:33N 47°18' W 122°26'0 0.0
2014-Oct-24 02:33N 47°18' W 122°26'0 0.0
2014-Oct-24 01:33N 47°18' W 122°26'2 1.7
2014-Oct-24 00:30N 47°16' W 122°24'4 4.0
2014-Oct-23 23:36N 47°18' W 122°28'0 8.5
2014-Oct-23 23:33N 47°18' W 122°29'3 3.3
2014-Oct-23 22:33N 47°16' W 122°33'7 6.1
2014-Oct-23 21:21N 47°10' W 122°38'1 1.3
2014-Oct-23 20:23N 47°09' W 122°38'0 0.0
2014-Oct-23 19:33N 47°09' W 122°38'1 1.0
2014-Oct-23 18:33N 47°10' W 122°39'8 7.8
2014-Oct-23 17:33N 47°16' W 122°33'3 4.4
2014-Oct-23 16:50N 47°19' W 122°30'310.0
2014-Oct-23 16:33N 47°17' W 122°26'2 1.7
2014-Oct-23 15:28N 47°17' W 122°24'0 0.0
2014-Oct-23 14:31N 47°17' W 122°24'1 0.7
2014-Oct-23 13:20N 47°16' W 122°23'1 1.0
2014-Oct-23 12:33N 47°17' W 122°24'1 0.6
2014-Oct-23 11:32N 47°16' W 122°23'2 2.2
2014-Oct-23 10:33N 47°17' W 122°26'3 3.3
2014-Oct-23 09:33N 47°20' W 122°24'2 5.2
2014-Oct-23 09:14N 47°21' W 122°22'3 4.9
2014-Oct-23 08:33N 47°25' W 122°23'3 4.7
2014-Oct-23 07:49N 47°28' W 122°25'1 4.8
2014-Oct-23 07:33N 47°29' W 122°26'2 4.7
2014-Oct-23 07:05N 47°31' W 122°26'3 4.9
2014-Oct-23 06:33N 47°34' W 122°27'0 4.7
2014-Oct-23 06:29N 47°34' W 122°27'2 4.2
2014-Oct-23 05:55N 47°37' W 122°28'1 4.0
2014-Oct-23 05:33N 47°38' W 122°28'3 3.5
2014-Oct-23 04:33N 47°41' W 122°28'0 3.5
2014-Oct-23 04:29N 47°42' W 122°28'3 3.4
2014-Oct-23 03:33N 47°45' W 122°27'0 3.1
2014-Oct-23 03:29N 47°45' W 122°27'3 3.6
2014-Oct-23 02:33N 47°48' W 122°28'0 3.9
2014-Oct-23 02:29N 47°49' W 122°28'4 3.9
2014-Oct-23 01:33N 47°52' W 122°29'0 3.8
2014-Oct-23 01:29N 47°52' W 122°30'4 3.8
2014-Oct-23 00:33N 47°55' W 122°32'4 4.1
2014-Oct-22 23:33N 47°56' W 122°38'5 4.7
2014-Oct-22 22:33N 47°52' W 122°37'4 4.1
2014-Oct-22 21:33N 47°48' W 122°41'3 2.8
2014-Oct-22 20:33N 47°46' W 122°43'0 0.2
2014-Oct-22 19:33N 47°46' W 122°43'0 0.0
2014-Oct-22 18:33N 47°46' W 122°43'0 4.9
2014-Oct-22 18:33N 47°46' W 122°43'7 7.4
2014-Oct-22 17:33N 47°52' W 122°37'5 4.7
2014-Oct-22 16:31N 47°57' W 122°37'3 8.0
2014-Oct-22 16:12N 47°57' W 122°33'5 8.0
2014-Oct-22 15:33N 47°53' W 122°28'7 8.6
2014-Oct-22 14:48N 47°47' W 122°26'2 8.7
2014-Oct-22 14:33N 47°45' W 122°26'0 8.6
2014-Oct-22 14:33N 47°45' W 122°26'8 7.9
2014-Oct-22 13:33N 47°37' W 122°24'0 6.9
2014-Oct-22 13:32N 47°37' W 122°23'3 3.0
2014-Oct-22 12:33N 47°34' W 122°21'0 0.0
2014-Oct-22 12:32N 47°34' W 122°21'0 0.0
2014-Oct-22 11:33N 47°34' W 122°21'0 0.0
2014-Oct-22 11:32N 47°34' W 122°21'0 0.0
2014-Oct-22 10:33N 47°34' W 122°21'0 0.0
2014-Oct-22 10:32N 47°34' W 122°21'0 0.0
2014-Oct-22 09:33N 47°34' W 122°21'0 0.0
2014-Oct-22 09:32N 47°34' W 122°21'0 0.0
2014-Oct-22 08:33N 47°34' W 122°21'0 0.0
2014-Oct-22 08:32N 47°34' W 122°21'0 0.0
2014-Oct-22 07:33N 47°34' W 122°21'0 0.3
2014-Oct-22 07:32N 47°34' W 122°21'0 0.0
2014-Oct-22 06:33N 47°34' W 122°21'0 0.0
2014-Oct-22 06:31N 47°34' W 122°21'0 0.0
2014-Oct-22 05:57N 47°34' W 122°21'0 0.0
2014-Oct-22 05:33N 47°34' W 122°21'0 0.0
2014-Oct-22 04:32N 47°34' W 122°21'0 0.0
2014-Oct-22 04:31N 47°34' W 122°21'0 0.0
2014-Oct-22 03:33N 47°34' W 122°21'0 0.0
2014-Oct-22 03:31N 47°34' W 122°21'0 0.0
2014-Oct-22 02:26N 47°34' W 122°21'0 0.0
2014-Oct-22 01:29N 47°34' W 122°21'0 0.0
2014-Oct-22 01:29N 47°34' W 122°21'0 0.0
2014-Oct-22 00:19N 47°34' W 122°21'1 2.3
2014-Oct-21 23:52N 47°35' W 122°22'1 4.5
2014-Oct-21 23:33N 47°34' W 122°21'0 5.3
2014-Oct-21 23:33N 47°34' W 122°21'0 0.5
2014-Oct-21 22:33N 47°34' W 122°21'0 0.0
2014-Oct-21 22:22N 47°34' W 122°21'0 0.0
2014-Oct-21 21:33N 47°34' W 122°21'0 0.0
2014-Oct-21 21:31N 47°34' W 122°21'0 0.0
2014-Oct-21 20:33N 47°34' W 122°21'0 0.0
2014-Oct-21 20:31N 47°34' W 122°21'0 0.0
2014-Oct-21 19:33N 47°34' W 122°21'0 0.0
2014-Oct-21 19:31N 47°34' W 122°21'0 0.4
2014-Oct-21 18:33N 47°34' W 122°21'0 2.1
2014-Oct-21 18:31N 47°34' W 122°21'3 2.7
2014-Oct-21 17:33N 47°36' W 122°24'0 6.2
2014-Oct-21 17:31N 47°36' W 122°24'7 7.1
2014-Oct-21 16:33N 47°30' W 122°29'8 7.6
2014-Oct-21 15:33N 47°23' W 122°32'8 8.4
2014-Oct-21 14:33N 47°14' W 122°35'7 7.0
2014-Oct-21 13:33N 47°08' W 122°39'0 0.3
2014-Oct-21 12:40N 47°08' W 122°39'0 0.0
2014-Oct-21 12:33N 47°08' W 122°39'0 0.0
2014-Oct-21 12:00N 47°08' W 122°39'0 0.0
2014-Oct-21 11:32N 47°08' W 122°39'0 0.0
2014-Oct-21 11:25N 47°08' W 122°39'0 0.0
2014-Oct-21 10:33N 47°08' W 122°39'0 0.1
2014-Oct-21 10:30N 47°08' W 122°39'0 0.0
2014-Oct-21 09:33N 47°08' W 122°39'0 0.0
2014-Oct-21 08:33N 47°08' W 122°39'0 0.0
2014-Oct-21 08:10N 47°08' W 122°39'0 0.0
2014-Oct-21 07:33N 47°08' W 122°39'2 2.3
2014-Oct-21 06:32N 47°10' W 122°38'7 7.0
2014-Oct-21 05:33N 47°16' W 122°33'6 5.7
2014-Oct-21 04:33N 47°22' W 122°32'7 6.5
2014-Oct-21 03:33N 47°28' W 122°31'7 6.8
2014-Oct-21 02:33N 47°35' W 122°27'1 7.3
2014-Oct-21 02:29N 47°35' W 122°26'3 3.6
2014-Oct-21 01:33N 47°34' W 122°21'0 5.5
2014-Oct-21 01:30N 47°34' W 122°21'0 0.3
2014-Oct-21 00:33N 47°34' W 122°21'0 0.7
2014-Oct-21 00:29N 47°34' W 122°21'3 3.3
2014-Oct-20 23:33N 47°36' W 122°25'0 6.8
2014-Oct-20 23:29N 47°35' W 122°25'7 7.2
2014-Oct-20 22:33N 47°29' W 122°30'7 6.9
2014-Oct-20 21:33N 47°23' W 122°32'6 5.8
2014-Oct-20 20:33N 47°17' W 122°32'4 3.7
2014-Oct-20 19:33N 47°14' W 122°35'6 6.3
2014-Oct-20 18:33N 47°08' W 122°39'0 0.2
2014-Oct-20 17:31N 47°08' W 122°39'0 0.0
2014-Oct-20 16:33N 47°08' W 122°39'0 0.0
2014-Oct-20 15:33N 47°08' W 122°39'0 0.0
2014-Oct-20 14:34N 47°08' W 122°39'0 0.0
2014-Oct-20 13:32N 47°08' W 122°39'0 0.0
2014-Oct-20 08:33N 47°08' W 122°39'5 4.6
2014-Oct-20 07:33N 47°12' W 122°36'6 6.1
2014-Oct-20 06:34N 47°18' W 122°33'5 5.2
2014-Oct-20 05:34N 47°23' W 122°32'6 5.6
2014-Oct-20 04:34N 47°29' W 122°31'0 4.2
2014-Oct-20 04:32N 47°29' W 122°30'5 5.4
2014-Oct-20 03:34N 47°33' W 122°27'1 5.5
2014-Oct-20 03:28N 47°34' W 122°26'3 3.3
2014-Oct-20 02:33N 47°35' W 122°22'0 0.0
2014-Oct-20 02:33N 47°35' W 122°22'1 1.0
2014-Oct-20 01:33N 47°34' W 122°21'0 0.0
2014-Oct-20 01:33N 47°34' W 122°21'0 0.0
2014-Oct-18 17:49N 47°34' W 122°21'1 2.5
2014-Oct-18 17:33N 47°34' W 122°21'1 3.9
2014-Oct-18 17:24N 47°34' W 122°21'2 2.6
2014-Oct-18 16:34N 47°36' W 122°23'0 2.7
2014-Oct-18 16:28N 47°37' W 122°23'5 5.3
2014-Oct-18 15:34N 47°39' W 122°28'0 5.0
2014-Oct-18 15:29N 47°40' W 122°28'5 5.0
2014-Oct-18 14:33N 47°44' W 122°27'0 4.7
2014-Oct-18 14:29N 47°45' W 122°27'5 5.4
2014-Oct-18 13:34N 47°50' W 122°28'0 3.7
2014-Oct-18 13:33N 47°50' W 122°28'5 4.9
2014-Oct-18 12:34N 47°54' W 122°30'0 3.2
2014-Oct-18 12:33N 47°54' W 122°30'4 4.1
2014-Oct-18 11:34N 47°57' W 122°35'4 4.1
2014-Oct-18 10:34N 48°01' W 122°38'5 4.5
2014-Oct-18 09:32N 48°05' W 122°40'10 5.2
2014-Oct-18 07:33N 48°12' W 122°52'6 5.6
2014-Oct-18 06:34N 48°16' W 122°56'5 5.2
2014-Oct-18 05:33N 48°21' W 123°00'5 5.0
2014-Oct-18 04:34N 48°25' W 123°04'5 5.7
2014-Oct-18 03:36N 48°29' W 123°09'0 5.7
2014-Oct-18 03:33N 48°30' W 123°10'2 6.0
2014-Oct-18 03:16N 48°31' W 123°11'4 5.9
2014-Oct-18 02:34N 48°35' W 123°13'2 5.5
2014-Oct-18 02:16N 48°37' W 123°14'4 6.1
2014-Oct-18 01:34N 48°41' W 123°16'6 6.2
2014-Oct-18 00:33N 48°45' W 123°09'3 3.3
2014-Oct-17 23:32N 48°46' W 123°13'0 0.2
2014-Oct-17 22:33N 48°46' W 123°13'0 0.2
2014-Oct-17 21:33N 48°46' W 123°13'1 0.6
2014-Oct-17 20:33N 48°46' W 123°12'1 0.8
2014-Oct-17 19:33N 48°46' W 123°13'0 0.3
2014-Oct-17 18:33N 48°46' W 123°13'2 2.1
2014-Oct-17 17:35N 48°45' W 123°10'0 5.8
2014-Oct-17 17:33N 48°45' W 123°10'0 1.3
2014-Oct-17 17:30N 48°45' W 123°10'4 3.7
2014-Oct-17 16:33N 48°42' W 123°13'2 6.1
2014-Oct-17 16:15N 48°41' W 123°15'5 6.9
2014-Oct-17 15:34N 48°37' W 123°13'6 6.2
2014-Oct-17 14:34N 48°31' W 123°11'7 6.6
2014-Oct-17 13:34N 48°26' W 123°04'8 7.5
2014-Oct-17 12:32N 48°19' W 122°57'7 7.4
2014-Oct-17 11:33N 48°14' W 122°51'10 8.9
2014-Oct-17 10:27N 48°08' W 122°40'8 8.4
2014-Oct-17 09:32N 48°00' W 122°36'5 7.8
2014-Oct-17 08:54N 47°57' W 122°31'2 7.2
2014-Oct-17 08:33N 47°55' W 122°28'8 7.6
2014-Oct-17 07:33N 47°47' W 122°26'4 7.4
2014-Oct-17 07:02N 47°43' W 122°26'3 6.9
2014-Oct-17 06:33N 47°40' W 122°27'0 6.2
2014-Oct-17 06:32N 47°40' W 122°27'6 5.7
2014-Oct-17 05:32N 47°35' W 122°22'1 1.3
2014-Oct-17 04:33N 47°34' W 122°21'0 0.0
2014-Oct-17 04:29N 47°34' W 122°21'1 0.7
2014-Oct-17 03:33N 47°34' W 122°21'0 0.0
2014-Oct-17 03:29N 47°34' W 122°21'3 3.3
2014-Oct-17 02:33N 47°35' W 122°25'0 6.9
2014-Oct-17 02:29N 47°35' W 122°25'6 6.8
2014-Oct-17 01:33N 47°30' W 122°30'5 7.0
2014-Oct-17 00:54N 47°25' W 122°31'2 6.5
2014-Oct-17 00:33N 47°23' W 122°32'7 6.8
2014-Oct-16 23:33N 47°16' W 122°33'12 2.3
2014-Oct-16 18:14N 47°11' W 122°50'3 2.8
2014-Oct-16 17:06N 47°10' W 122°46'4 7.3
2014-Oct-16 16:33N 47°11' W 122°41'8 8.4
2014-Oct-16 15:33N 47°18' W 122°33'8 8.2
2014-Oct-16 14:33N 47°26' W 122°31'6 7.6
2014-Oct-16 13:42N 47°32' W 122°28'1 8.4
2014-Oct-16 13:33N 47°33' W 122°27'3 8.0
2014-Oct-16 13:13N 47°35' W 122°25'3 4.7
2014-Oct-16 12:33N 47°34' W 122°21'0 3.2
2014-Oct-16 12:33N 47°34' W 122°21'1 0.5
2014-Oct-16 11:33N 47°34' W 122°21'1 5.9
2014-Oct-16 11:28N 47°35' W 122°22'1 0.8
2014-Oct-16 10:33N 47°35' W 122°22'0 1.8
2014-Oct-16 10:32N 47°35' W 122°22'6 5.9
2014-Oct-16 09:33N 47°40' W 122°27'0 6.4
2014-Oct-16 09:32N 47°41' W 122°27'6 6.5
2014-Oct-16 08:33N 47°47' W 122°26'0 6.0
2014-Oct-16 08:32N 47°47' W 122°26'7 7.0
2014-Oct-16 07:33N 47°53' W 122°22'0 7.0
2014-Oct-16 07:32N 47°54' W 122°22'7 6.8
2014-Oct-16 06:33N 47°58' W 122°15'4 3.7
2014-Oct-16 05:33N 48°01' W 122°11'0 0.1
2014-Oct-16 04:33N 48°01' W 122°11'0 0.0
2014-Oct-16 03:33N 48°01' W 122°11'0 0.0
2014-Oct-16 02:36N 48°01' W 122°11'0 0.0
2014-Oct-16 02:25N 48°01' W 122°11'0 0.0
2014-Oct-16 01:33N 48°01' W 122°11'0 0.0
2014-Oct-16 00:33N 48°01' W 122°11'0 0.0
2014-Oct-15 23:04N 48°01' W 122°11'0 0.0
2014-Oct-15 22:32N 48°01' W 122°11'0 0.0
2014-Oct-15 21:33N 48°01' W 122°11'0 0.0
2014-Oct-15 20:33N 48°01' W 122°11'0 0.0
2014-Oct-15 19:33N 48°01' W 122°11'2 1.7
2014-Oct-15 18:33N 48°01' W 122°14'7 6.6
2014-Oct-15 17:33N 47°56' W 122°20'710.9
2014-Oct-15 16:56N 47°50' W 122°24'411.0
2014-Oct-15 16:33N 47°46' W 122°25'111.0
2014-Oct-15 16:26N 47°44' W 122°26'910.1
2014-Oct-15 15:33N 47°36' W 122°22'110.2
2014-Oct-15 15:30N 47°35' W 122°22'1 1.5
2014-Oct-15 14:33N 47°34' W 122°21'0 0.1
2014-Oct-15 14:30N 47°34' W 122°21'1 0.9
2014-Oct-15 13:33N 47°35' W 122°22'0 3.7
2014-Oct-15 13:30N 47°35' W 122°22'3 3.2
2014-Oct-15 12:33N 47°35' W 122°26'0 4.3
2014-Oct-15 12:30N 47°35' W 122°26'5 4.8
2014-Oct-15 11:33N 47°31' W 122°29'0 5.3
2014-Oct-15 11:29N 47°30' W 122°29'5 5.5
2014-Oct-15 10:33N 47°26' W 122°32'2 4.8
2014-Oct-15 10:03N 47°23' W 122°32'3 5.5
2014-Oct-15 09:33N 47°21' W 122°33'7 6.8
2014-Oct-15 08:33N 47°14' W 122°35'13 5.4
2014-Oct-15 06:09N 47°09' W 122°53'  

Dump ship's entire track history